Time;durP1;ratioP1;P1;durP2;ratioP2;P2;SDS_P1;SDS_P2;PMS_P1;PMS_P2;Temp;Humidity;BMP_temperature;BMP_pressure;BME280_temperature;BME280_humidity;BME280_pressure;Samples;Min_cycle;Max_cycle;Signal;HPM_P1;HPM_P2
2022/11/24 00:01:19;;;;;;;38.78;18.17;;;;;;;;;;6188502;23;20496;-75
2022/11/24 00:03:46;;;;;;;36.80;17.23;;;;;;;;;;6184727;23;20064;-71
2022/11/24 00:06:14;;;;;;;38.60;17.17;;;;;;;;;;6184682;23;20005;-75
2022/11/24 00:08:42;;;;;;;37.90;17.02;;;;;;;;;;6184886;23;19997;-76
2022/11/24 00:11:09;;;;;;;29.13;14.75;;;;;;;;;;6184930;23;19997;-76
2022/11/24 00:13:37;;;;;;;53.72;21.83;;;;;;;;;;6185064;23;20001;-76
2022/11/24 00:16:07;;;;;;;39.40;16.90;;;;;;;;;;6184690;23;20430;-75
2022/11/24 00:18:33;;;;;;;34.92;16.08;;;;;;;;;;6184625;23;20080;-77
2022/11/24 00:20:59;;;;;;;38.15;17.02;;;;;;;;;;6185086;23;20020;-76
2022/11/24 00:23:25;;;;;;;41.17;17.17;;;;;;;;;;6158440;23;20397;-76
2022/11/24 00:25:51;;;;;;;62.15;24.85;;;;;;;;;;6184762;23;20131;-77
2022/11/24 00:28:17;;;;;;;60.40;22.55;;;;;;;;;;6184191;23;20036;-76
2022/11/24 00:30:43;;;;;;;68.65;25.67;;;;;;;;;;6184858;23;19997;-77
2022/11/24 00:33:09;;;;;;;72.38;26.17;;;;;;;;;;6185535;23;20001;-76
2022/11/24 00:35:35;;;;;;;67.93;25.23;;;;;;;;;;6185634;23;20008;-76
2022/11/24 00:38:01;;;;;;;76.10;25.60;;;;;;;;;;6184325;23;20004;-75
2022/11/24 00:40:27;;;;;;;66.60;24.98;;;;;;;;;;6185102;23;20001;-75
2022/11/24 00:42:53;;;;;;;66.90;27.13;;;;;;;;;;6184981;23;20009;-77
2022/11/24 00:45:19;;;;;;;74.15;26.38;;;;;;;;;;6158342;23;20048;-76
2022/11/24 00:47:45;;;;;;;56.90;22.73;;;;;;;;;;6184350;23;20005;-76
2022/11/24 00:50:11;;;;;;;62.40;24.17;;;;;;;;;;6184935;23;20030;-74
2022/11/24 00:52:37;;;;;;;65.10;24.10;;;;;;;;;;6184675;23;20316;-76
2022/11/24 00:55:03;;;;;;;60.42;22.48;;;;;;;;;;6184567;23;20055;-76
2022/11/24 00:57:29;;;;;;;55.78;22.02;;;;;;;;;;6184150;23;20001;-75
2022/11/24 00:59:55;;;;;;;60.30;22.98;;;;;;;;;;6184467;23;20001;-75
2022/11/24 01:02:21;;;;;;;63.80;25.13;;;;;;;;;;6184247;23;20365;-75
2022/11/24 01:04:47;;;;;;;59.85;22.13;;;;;;;;;;6184786;23;20072;-75
2022/11/24 01:07:13;;;;;;;57.40;21.75;;;;;;;;;;6184077;23;20000;-72
2022/11/24 01:09:42;;;;;;;50.85;22.40;;;;;;;;;;6184395;23;20075;-75
2022/11/24 01:12:08;;;;;;;50.10;20.23;;;;;;;;;;6184647;23;20001;-75
2022/11/24 01:14:34;;;;;;;43.88;19.02;;;;;;;;;;6184445;23;20005;-73
2022/11/24 01:17:00;;;;;;;36.47;17.20;;;;;;;;;;6184039;23;20012;-72
2022/11/24 01:19:26;;;;;;;49.83;19.92;;;;;;;;;;6184019;23;20430;-74
2022/11/24 01:21:52;;;;;;;50.20;18.95;;;;;;;;;;6184344;23;20001;-73
2022/11/24 01:24:18;;;;;;;48.70;20.08;;;;;;;;;;6184095;23;20005;-75
2022/11/24 01:26:44;;;;;;;44.58;19.10;;;;;;;;;;6183911;23;20160;-75
2022/11/24 01:29:11;;;;;;;47.45;19.50;;;;;;;;;;6183819;23;20001;-75
2022/11/24 01:31:37;;;;;;;40.78;17.63;;;;;;;;;;6184103;23;20010;-77
2022/11/24 01:34:03;;;;;;;43.03;17.50;;;;;;;;;;6183986;23;20392;-75
2022/11/24 01:36:29;;;;;;;35.20;17.02;;;;;;;;;;6157588;23;20009;-78
2022/11/24 01:38:55;;;;;;;41.25;19.52;;;;;;;;;;6183888;23;20027;-74
2022/11/24 01:41:22;;;;;;;43.83;17.58;;;;;;;;;;6184150;23;20020;-75
2022/11/24 01:43:48;;;;;;;40.50;18.15;;;;;;;;;;6184155;23;20005;-76
2022/11/24 01:46:17;;;;;;;36.63;16.45;;;;;;;;;;6184254;23;20437;-75
2022/11/24 01:48:46;;;;;;;33.10;15.25;;;;;;;;;;6184142;23;20001;-75
2022/11/24 01:51:21;;;;;;;32.17;15.10;;;;;;;;;;6184186;23;20002;-75
2022/11/24 01:53:51;;;;;;;38.85;16.50;;;;;;;;;;6186143;23;20001;-75
2022/11/24 01:56:17;;;;;;;31.30;15.32;;;;;;;;;;6161969;23;20009;-76
2022/11/24 01:58:44;;;;;;;42.10;17.60;;;;;;;;;;6190114;23;20008;-75
2022/11/24 02:01:11;;;;;;;41.08;17.27;;;;;;;;;;6190069;23;20333;-75
2022/11/24 02:03:38;;;;;;;40.20;15.00;;;;;;;;;;6188491;23;20009;-75
2022/11/24 02:06:07;;;;;;;36.92;15.93;;;;;;;;;;6188698;23;20338;-79
2022/11/24 02:08:44;;;;;;;34.97;15.05;;;;;;;;;;6186999;23;20027;-76
2022/11/24 02:11:10;;;;;;;37.55;15.07;;;;;;;;;;6157685;23;20009;-78
2022/11/24 02:13:37;;;;;;;32.42;14.57;;;;;;;;;;6184425;23;20051;-75
2022/11/24 02:16:06;;;;;;;25.33;13.02;;;;;;;;;;6183622;23;20059;-76
2022/11/24 02:18:32;;;;;;;31.38;12.57;;;;;;;;;;6183497;23;20005;-75
2022/11/24 02:20:59;;;;;;;30.88;13.07;;;;;;;;;;6157282;23;20024;-75
2022/11/24 02:23:30;;;;;;;31.92;12.98;;;;;;;;;;6183813;23;20011;-78
2022/11/24 02:26:00;;;;;;;29.25;12.68;;;;;;;;;;6183660;23;20004;-75
2022/11/24 02:28:26;;;;;;;22.65;11.23;;;;;;;;;;6182147;23;20009;-75
2022/11/24 02:30:53;;;;;;;32.42;12.25;;;;;;;;;;6157208;23;20032;-75
2022/11/24 02:33:20;;;;;;;32.85;12.52;;;;;;;;;;6185628;23;20001;-79
2022/11/24 02:35:46;;;;;;;28.92;12.25;;;;;;;;;;6185870;23;20005;-75
2022/11/24 02:38:13;;;;;;;25.50;12.95;;;;;;;;;;6157011;23;20458;-75
2022/11/24 02:40:41;;;;;;;34.85;13.70;;;;;;;;;;6157342;23;20386;-73
2022/11/24 02:43:14;;;;;;;34.10;13.15;;;;;;;;;;6157515;23;20056;-74
2022/11/24 02:45:41;;;;;;;37.28;14.63;;;;;;;;;;6183889;23;20008;-75
2022/11/24 02:48:07;;;;;;;25.88;12.23;;;;;;;;;;6183699;23;19997;-75
2022/11/24 02:50:33;;;;;;;27.33;11.90;;;;;;;;;;6183431;23;20001;-75
2022/11/24 02:52:59;;;;;;;38.80;14.90;;;;;;;;;;6183353;23;20008;-76
2022/11/24 02:55:25;;;;;;;33.53;14.70;;;;;;;;;;6183335;23;20465;-75
2022/11/24 02:57:51;;;;;;;46.15;16.00;;;;;;;;;;6182847;23;20000;-76
2022/11/24 03:00:17;;;;;;;61.33;20.90;;;;;;;;;;6156891;23;20009;-75
2022/11/24 03:02:43;;;;;;;52.80;19.88;;;;;;;;;;6183345;23;20013;-71
2022/11/24 03:05:11;;;;;;;60.00;22.17;;;;;;;;;;6183467;23;20319;-75
2022/11/24 03:07:37;;;;;;;68.38;22.40;;;;;;;;;;6182829;23;20001;-75
2022/11/24 03:10:03;;;;;;;70.68;23.98;;;;;;;;;;6183587;23;20051;-74
2022/11/24 03:12:29;;;;;;;70.65;26.77;;;;;;;;;;6157455;23;20080;-73
2022/11/24 03:14:55;;;;;;;73.05;26.48;;;;;;;;;;6183276;23;20067;-72
2022/11/24 03:17:21;;;;;;;92.47;28.50;;;;;;;;;;6182967;23;20429;-75
2022/11/24 03:19:47;;;;;;;81.95;29.48;;;;;;;;;;6183005;23;20000;-75
2022/11/24 03:22:14;;;;;;;88.85;26.67;;;;;;;;;;6183822;23;20341;-75
2022/11/24 03:24:40;;;;;;;90.07;27.23;;;;;;;;;;6183154;23;20063;-75
2022/11/24 03:27:06;;;;;;;98.78;29.85;;;;;;;;;;6182767;23;20084;-80
2022/11/24 03:29:32;;;;;;;84.53;28.35;;;;;;;;;;6183133;23;20004;-75
2022/11/24 03:31:58;;;;;;;80.55;27.05;;;;;;;;;;6156620;23;19997;-75
2022/11/24 03:34:24;;;;;;;95.82;29.65;;;;;;;;;;6183111;23;20080;-76
2022/11/24 03:36:50;;;;;;;84.45;27.88;;;;;;;;;;6156719;23;20044;-76
2022/11/24 03:39:16;;;;;;;83.10;28.15;;;;;;;;;;6156861;23;20441;-76
2022/11/24 03:41:42;;;;;;;87.47;28.75;;;;;;;;;;6184871;23;20059;-75
2022/11/24 03:44:08;;;;;;;65.93;26.13;;;;;;;;;;6184703;23;20075;-76
2022/11/24 03:46:34;;;;;;;76.90;25.85;;;;;;;;;;6185368;23;20345;-75
2022/11/24 03:49:00;;;;;;;65.82;25.15;;;;;;;;;;6184351;23;19997;-74
2022/11/24 03:51:26;;;;;;;71.13;24.67;;;;;;;;;;6185229;23;20047;-74
2022/11/24 03:53:52;;;;;;;73.22;23.83;;;;;;;;;;6156875;23;20005;-75
2022/11/24 03:56:18;;;;;;;61.05;22.13;;;;;;;;;;6183359;23;20044;-76
2022/11/24 03:58:44;;;;;;;59.20;21.90;;;;;;;;;;6182992;23;20369;-76
2022/11/24 04:01:10;;;;;;;63.35;23.23;;;;;;;;;;6183713;23;20056;-75
2022/11/24 04:03:36;;;;;;;65.07;24.13;;;;;;;;;;6183256;23;20040;-73
2022/11/24 04:06:02;;;;;;;63.17;23.73;;;;;;;;;;6182825;23;20005;-75
2022/11/24 04:08:28;;;;;;;64.07;23.10;;;;;;;;;;6183263;23;20080;-73
2022/11/24 04:10:54;;;;;;;57.28;21.27;;;;;;;;;;6156886;23;20017;-75
2022/11/24 04:13:21;;;;;;;58.45;21.20;;;;;;;;;;6184647;23;20342;-73
2022/11/24 04:15:47;;;;;;;52.50;21.20;;;;;;;;;;6184956;23;20374;-72
2022/11/24 04:18:13;;;;;;;54.10;21.67;;;;;;;;;;6184217;23;20005;-76
2022/11/24 04:20:40;;;;;;;55.35;21.25;;;;;;;;;;6163486;23;20060;-76
2022/11/24 04:23:06;;;;;;;52.95;21.35;;;;;;;;;;6194046;23;20001;-76
2022/11/24 04:25:32;;;;;;;59.35;23.80;;;;;;;;;;6189287;23;20051;-75
2022/11/24 04:28:03;;;;;;;53.90;21.30;;;;;;;;;;6163096;23;20092;-76
2022/11/24 04:30:33;;;;;;;53.72;21.77;;;;;;;;;;6154504;23;20001;-77
2022/11/24 04:33:16;;;;;;;53.45;20.20;;;;;;;;;;6153935;23;20005;-75
2022/11/24 04:36:15;;;;;;;;;;;;;;;;;;;;;
2022/11/24 04:38:51;;;;;;;49.38;19.60;;;;;;;;;;6145144;23;20136;-76
2022/11/24 04:41:33;;;;;;;46.53;19.05;;;;;;;;;;6154859;23;20012;-77
2022/11/24 04:44:16;;;;;;;48.25;20.15;;;;;;;;;;6153444;23;20127;-75
2022/11/24 04:47:02;;;;;;;48.22;18.92;;;;;;;;;;6152817;23;20013;-77
2022/11/24 04:49:30;;;;;;;41.15;17.55;;;;;;;;;;6156580;23;19993;-75
2022/11/24 04:52:01;;;;;;;38.65;17.58;;;;;;;;;;6155048;23;19997;-77
2022/11/24 04:54:30;;;;;;;38.50;17.75;;;;;;;;;;6153195;23;20012;-77
2022/11/24 05:00:06;;;;;;;37.45;16.30;;;;;;;;;;6153927;23;20013;-77
2022/11/24 05:02:35;;;;;;;35.95;16.17;;;;;;;;;;6153412;23;20390;-77
2022/11/24 05:05:08;;;;;;;33.50;15.10;;;;;;;;;;6153054;23;20006;-77
2022/11/24 05:07:40;;;;;;;38.85;17.20;;;;;;;;;;6154658;23;20346;-76
2022/11/24 05:13:03;;;;;;;37.10;14.57;;;;;;;;;;6154945;23;20020;-77
2022/11/24 05:18:31;;;;;;;34.90;16.17;;;;;;;;;;6153971;23;20097;-77
2022/11/24 05:21:01;;;;;;;40.92;16.65;;;;;;;;;;6153324;23;20393;-73
2022/11/24 05:23:27;;;;;;;40.00;15.55;;;;;;;;;;6152837;23;20013;-79
2022/11/24 05:26:02;;;;;;;35.80;17.67;;;;;;;;;;6154792;23;20109;-76
2022/11/24 05:28:40;;;;;;;35.53;16.60;;;;;;;;;;6152528;23;20009;-77
2022/11/24 05:31:13;;;;;;;38.42;16.05;;;;;;;;;;6152099;23;20465;-74
2022/11/24 05:34:05;;;;;;;36.10;16.42;;;;;;;;;;6152878;23;20002;-76
2022/11/24 05:37:01;;;;;;;40.30;16.23;;;;;;;;;;6153075;23;20016;-73
2022/11/24 05:39:29;;;;;;;29.92;13.88;;;;;;;;;;6128071;23;20010;-76
2022/11/24 05:44:59;;;;;;;32.50;13.10;;;;;;;;;;6154395;23;20039;-81
2022/11/24 05:47:40;;;;;;;33.63;13.75;;;;;;;;;;6152771;23;20013;-76
2022/11/24 05:50:10;;;;;;;28.17;12.98;;;;;;;;;;6152751;23;20016;-76
2022/11/24 05:52:41;;;;;;;27.98;12.45;;;;;;;;;;6152676;23;20001;-77
2022/11/24 05:55:18;;;;;;;33.45;13.82;;;;;;;;;;6154657;23;20027;-76
2022/11/24 05:57:44;;;;;;;32.22;13.70;;;;;;;;;;6153034;23;20024;-77
2022/11/24 06:00:21;;;;;;;32.45;13.05;;;;;;;;;;6154400;23;20385;-77
2022/11/24 06:03:17;;;;;;;31.67;12.57;;;;;;;;;;6154869;23;20125;-79
2022/11/24 06:05:53;;;;;;;32.80;13.48;;;;;;;;;;6153070;23;20438;-77
2022/11/24 06:08:30;;;;;;;32.20;14.07;;;;;;;;;;6152999;23;20013;-77
2022/11/24 06:14:29;;;;;;;44.65;17.50;;;;;;;;;;6124823;23;20016;-77
2022/11/24 06:17:08;;;;;;;39.05;16.20;;;;;;;;;;6153545;23;20009;-78
2022/11/24 06:20:02;;;;;;;37.40;13.88;;;;;;;;;;6153945;23;20485;-76
2022/11/24 06:22:43;;;;;;;60.00;18.63;;;;;;;;;;6153530;23;20080;-77
2022/11/24 06:25:54;;;;;;;39.75;15.75;;;;;;;;;;6154292;23;20010;-78
2022/11/24 06:28:37;;;;;;;51.60;17.05;;;;;;;;;;6129010;23;20014;-79
2022/11/24 06:31:08;;;;;;;37.17;16.05;;;;;;;;;;6153660;23;20334;-77
2022/11/24 06:33:59;;;;;;;40.40;16.13;;;;;;;;;;6152418;23;20001;-80
2022/11/24 06:36:26;;;;;;;31.00;14.70;;;;;;;;;;6152063;23;20036;-78
2022/11/24 06:39:03;;;;;;;29.23;15.10;;;;;;;;;;6155026;23;20081;-72
2022/11/24 06:41:44;;;;;;;35.38;15.70;;;;;;;;;;6153670;23;20005;-72
2022/11/24 06:44:24;;;;;;;33.53;14.38;;;;;;;;;;6153137;23;20057;-73
2022/11/24 06:47:08;;;;;;;20.67;9.07;;;;;;;;;;6153042;23;20009;-73
2022/11/24 06:49:34;;;;;;;29.95;13.98;;;;;;;;;;6151781;23;20008;-71
2022/11/24 06:52:00;;;;;;;27.80;13.02;;;;;;;;;;6152118;23;20049;-73
2022/11/24 06:54:26;;;;;;;27.40;11.57;;;;;;;;;;6153758;23;20117;-73
2022/11/24 06:57:03;;;;;;;27.20;12.32;;;;;;;;;;6153101;23;20013;-73
2022/11/24 06:59:48;;;;;;;21.50;11.77;;;;;;;;;;6152974;23;20061;-76
2022/11/24 07:11:45;;;;;;;27.33;12.18;;;;;;;;;;6183409;23;20013;-77
2022/11/24 07:14:46;;;;;;;28.95;12.25;;;;;;;;;;6182707;23;20001;-74
2022/11/24 07:17:25;;;;;;;25.27;12.35;;;;;;;;;;6181738;23;20005;-79
2022/11/24 07:19:57;;;;;;;23.80;13.18;;;;;;;;;;6206336;23;20011;-77
2022/11/24 07:22:29;;;;;;;25.95;13.77;;;;;;;;;;6209962;23;20031;-78
2022/11/24 07:41:05;;;;;;;28.70;15.15;;;;;;;;;;6144527;23;20026;-77
2022/11/24 07:46:57;;;;;;;35.55;15.35;;;;;;;;;;6151954;23;20013;-79
2022/11/24 07:49:30;;;;;;;34.67;15.70;;;;;;;;;;6142453;23;20012;-77
2022/11/24 07:55:09;;;;;;;29.02;15.75;;;;;;;;;;6155104;23;20034;-75
2022/11/24 07:57:40;;;;;;;28.67;14.63;;;;;;;;;;6154949;23;19998;-80
2022/11/24 08:00:06;;;;;;;28.15;14.93;;;;;;;;;;6154085;23;19998;-77
2022/11/24 08:02:36;;;;;;;34.47;16.38;;;;;;;;;;6153747;23;20009;-79
2022/11/24 08:05:04;;;;;;;33.22;15.68;;;;;;;;;;6154727;23;20194;-79
2022/11/24 08:07:40;;;;;;;31.98;16.55;;;;;;;;;;6155269;23;20006;-78
2022/11/24 08:10:07;;;;;;;30.83;15.90;;;;;;;;;;6154969;23;20006;-78
2022/11/24 08:13:00;;;;;;;30.50;15.75;;;;;;;;;;6154165;23;20012;-76
2022/11/24 08:15:29;;;;;;;28.95;15.93;;;;;;;;;;6152014;23;20147;-79
2022/11/24 08:17:57;;;;;;;30.60;14.38;;;;;;;;;;6151423;23;20060;-76
2022/11/24 08:20:26;;;;;;;26.80;14.18;;;;;;;;;;6152857;23;20005;-79
2022/11/24 08:22:56;;;;;;;31.85;14.55;;;;;;;;;;6155495;23;20089;-78
2022/11/24 08:25:24;;;;;;;23.30;12.55;;;;;;;;;;6154603;23;20068;-79
2022/11/24 08:27:52;;;;;;;26.02;12.43;;;;;;;;;;6153775;23;20012;-80
2022/11/24 08:30:18;;;;;;;31.65;12.90;;;;;;;;;;6157866;23;20003;-78
2022/11/24 08:32:45;;;;;;;23.48;11.48;;;;;;;;;;6157043;23;20427;-78
2022/11/24 08:35:11;;;;;;;24.92;13.20;;;;;;;;;;6158526;23;20013;-78
2022/11/24 08:37:40;;;;;;;22.00;12.23;;;;;;;;;;6156669;23;20033;-79
2022/11/24 08:40:12;;;;;;;24.85;12.20;;;;;;;;;;6157249;23;20005;-76
2022/11/24 08:42:38;;;;;;;29.08;12.98;;;;;;;;;;6156246;23;20084;-79
2022/11/24 08:45:07;;;;;;;23.38;12.15;;;;;;;;;;6156764;23;20017;-75
2022/11/24 08:47:36;;;;;;;20.10;11.82;;;;;;;;;;6156448;23;20009;-77
2022/11/24 08:50:02;;;;;;;18.98;11.48;;;;;;;;;;6154094;23;20002;-79
2022/11/24 08:52:28;;;;;;;19.45;11.80;;;;;;;;;;6158205;23;20428;-78
2022/11/24 08:54:56;;;;;;;22.83;11.80;;;;;;;;;;6156221;23;20045;-78
2022/11/24 08:57:25;;;;;;;22.63;12.52;;;;;;;;;;6155525;23;20052;-78
2022/11/24 08:59:54;;;;;;;19.35;11.57;;;;;;;;;;6159377;23;20033;-76
2022/11/24 09:02:29;;;;;;;19.23;11.98;;;;;;;;;;6157059;23;20074;-77
2022/11/24 09:04:55;;;;;;;27.38;13.27;;;;;;;;;;6155985;23;20009;-79
2022/11/24 09:07:21;;;;;;;20.08;11.85;;;;;;;;;;6155704;23;20002;-78
2022/11/24 09:09:47;;;;;;;23.45;12.90;;;;;;;;;;6153853;23;20024;-78
2022/11/24 09:12:13;;;;;;;24.25;12.15;;;;;;;;;;6152600;23;20012;-78
2022/11/24 09:14:39;;;;;;;23.92;14.02;;;;;;;;;;6153283;23;20013;-76
2022/11/24 09:17:06;;;;;;;23.27;12.85;;;;;;;;;;6153911;23;20013;-75
2022/11/24 09:19:34;;;;;;;23.83;12.10;;;;;;;;;;6155601;23;20422;-75
2022/11/24 09:22:06;;;;;;;21.20;12.40;;;;;;;;;;6155996;23;19997;-78
2022/11/24 09:24:32;;;;;;;24.08;12.73;;;;;;;;;;6153596;23;20479;-76
2022/11/24 09:26:58;;;;;;;22.75;12.15;;;;;;;;;;6154515;23;20092;-76
2022/11/24 09:29:28;;;;;;;26.10;12.88;;;;;;;;;;6153891;23;20001;-79
2022/11/24 09:31:56;;;;;;;29.52;12.77;;;;;;;;;;6156205;23;20493;-78
2022/11/24 09:34:25;;;;;;;21.90;12.43;;;;;;;;;;6160024;23;20005;-77
2022/11/24 09:36:52;;;;;;;24.05;13.20;;;;;;;;;;6161796;23;20017;-77
2022/11/24 09:39:18;;;;;;;23.50;13.68;;;;;;;;;;6159426;23;20016;-79
2022/11/24 09:41:47;;;;;;;23.55;12.65;;;;;;;;;;6159214;23;20025;-77
2022/11/24 09:44:22;;;;;;;24.08;11.40;;;;;;;;;;6155134;23;20010;-77
2022/11/24 09:47:06;;;;;;;25.30;12.32;;;;;;;;;;6155189;23;20010;-78
2022/11/24 09:49:32;;;;;;;19.95;11.40;;;;;;;;;;6155305;23;20437;-78
2022/11/24 09:52:11;;;;;;;20.67;11.95;;;;;;;;;;6153725;23;20001;-76
2022/11/24 09:54:40;;;;;;;26.35;13.15;;;;;;;;;;6153392;23;20016;-77
2022/11/24 09:57:07;;;;;;;20.58;11.73;;;;;;;;;;6154204;23;20063;-77
2022/11/24 09:59:33;;;;;;;27.23;13.20;;;;;;;;;;6154005;23;20009;-78
2022/11/24 10:01:59;;;;;;;34.22;14.10;;;;;;;;;;6156204;23;20080;-78
2022/11/24 10:04:30;;;;;;;28.30;13.57;;;;;;;;;;6156254;23;20032;-78
2022/11/24 10:07:13;;;;;;;23.60;13.13;;;;;;;;;;6158827;23;20025;-80
2022/11/24 10:09:39;;;;;;;24.88;13.48;;;;;;;;;;6163580;23;20048;-79
2022/11/24 10:12:24;;;;;;;28.00;14.45;;;;;;;;;;6163247;23;20007;-76
2022/11/24 10:14:58;;;;;;;28.73;14.50;;;;;;;;;;6165911;23;20005;-78
2022/11/24 10:17:27;;;;;;;26.50;13.07;;;;;;;;;;6161716;23;20005;-80
2022/11/24 10:19:58;;;;;;;23.70;14.20;;;;;;;;;;6156996;23;20096;-81
2022/11/24 10:22:39;;;;;;;33.15;15.27;;;;;;;;;;6154481;23;20039;-79
2022/11/24 10:25:25;;;;;;;27.38;14.00;;;;;;;;;;6155441;23;20077;-79
2022/11/24 10:27:55;;;;;;;24.10;14.00;;;;;;;;;;6155318;23;20005;-80
2022/11/24 10:30:22;;;;;;;23.65;12.15;;;;;;;;;;6157855;23;20002;-80
2022/11/24 10:32:53;;;;;;;18.17;11.73;;;;;;;;;;6163410;23;20085;-79
2022/11/24 10:35:24;;;;;;;18.75;12.15;;;;;;;;;;6175900;23;20073;-79
2022/11/24 10:37:55;;;;;;;18.35;11.68;;;;;;;;;;6173142;23;20001;-81
2022/11/24 10:40:27;;;;;;;25.85;15.25;;;;;;;;;;6169509;23;20005;-80
2022/11/24 10:42:53;;;;;;;20.08;11.52;;;;;;;;;;6171140;23;20008;-80
2022/11/24 10:45:23;;;;;;;22.60;13.07;;;;;;;;;;6169847;23;20001;-79
2022/11/24 10:47:50;;;;;;;19.00;12.30;;;;;;;;;;6165760;23;20002;-79
2022/11/24 10:50:32;;;;;;;20.98;12.82;;;;;;;;;;6163260;23;20005;-80
2022/11/24 10:53:05;;;;;;;20.40;12.43;;;;;;;;;;6161668;23;20002;-77
2022/11/24 10:55:50;;;;;;;24.23;12.10;;;;;;;;;;6161584;23;20077;-79
2022/11/24 10:58:17;;;;;;;21.75;11.68;;;;;;;;;;6161465;23;20009;-78
2022/11/24 11:00:43;;;;;;;25.65;12.32;;;;;;;;;;6156209;23;20063;-79
2022/11/24 11:03:38;;;;;;;24.77;13.93;;;;;;;;;;6157189;23;20005;-78
2022/11/24 11:06:21;;;;;;;19.38;12.18;;;;;;;;;;6139396;23;20017;-78
2022/11/24 11:08:47;;;;;;;23.42;12.45;;;;;;;;;;6159948;23;20334;-79
2022/11/24 11:11:26;;;;;;;21.67;13.65;;;;;;;;;;6158879;23;20076;-80
2022/11/24 11:13:59;;;;;;;24.60;14.32;;;;;;;;;;6160714;23;20006;-80
2022/11/24 11:16:28;;;;;;;22.60;13.63;;;;;;;;;;6159293;23;20064;-81
2022/11/24 11:18:55;;;;;;;23.50;15.38;;;;;;;;;;6159957;23;20009;-81
2022/11/24 11:21:30;;;;;;;25.17;13.60;;;;;;;;;;6166077;23;20010;-80
2022/11/24 11:23:57;;;;;;;25.55;15.48;;;;;;;;;;6183084;23;20013;-84
2022/11/24 11:26:26;;;;;;;26.40;14.50;;;;;;;;;;6182684;23;20017;-83
2022/11/24 11:28:59;;;;;;;24.55;15.38;;;;;;;;;;6183029;23;19998;-82
2022/11/24 11:31:25;;;;;;;26.60;15.73;;;;;;;;;;6182186;23;20001;-81
2022/11/24 11:33:56;;;;;;;36.85;18.38;;;;;;;;;;6174254;23;20005;-80
2022/11/24 11:36:26;;;;;;;32.10;18.30;;;;;;;;;;6163955;23;20492;-81
2022/11/24 11:38:52;;;;;;;27.27;16.45;;;;;;;;;;6160804;23;20450;-81
2022/11/24 11:41:48;;;;;;;37.35;18.40;;;;;;;;;;6166070;23;20005;-81
2022/11/24 11:44:39;;;;;;;34.47;18.45;;;;;;;;;;6163568;23;20005;-80
2022/11/24 11:47:20;;;;;;;31.47;16.80;;;;;;;;;;6162363;23;20006;-81
2022/11/24 11:49:46;;;;;;;;;;;;;;;;;;6164553;23;20001;-82
2022/11/24 11:52:27;;;;;;;33.65;17.55;;;;;;;;;;6165124;23;19947;-79
2022/11/24 11:55:37;;;;;;;27.13;16.15;;;;;;;;;;6187178;23;20480;-81
2022/11/24 11:58:07;;;;;;;28.40;16.17;;;;;;;;;;6192246;23;20009;-80
2022/11/24 12:00:36;;;;;;;28.17;15.68;;;;;;;;;;6186519;23;20012;-79
2022/11/24 12:03:34;;;;;;;32.42;16.70;;;;;;;;;;6188520;23;20433;-79
2022/11/24 12:06:19;;;;;;;27.00;15.25;;;;;;;;;;6083599;23;20001;-79
2022/11/24 12:08:48;;;;;;;24.90;15.60;;;;;;;;;;6159782;23;20071;-80
2022/11/24 12:11:14;;;;;;;27.30;15.20;;;;;;;;;;6160306;23;20088;-79
2022/11/24 12:13:54;;;;;;;30.45;16.85;;;;;;;;;;6186552;23;20028;-80
2022/11/24 12:16:30;;;;;;;29.08;16.15;;;;;;;;;;6160383;23;20005;-79
2022/11/24 12:19:48;;;;;;;27.80;16.40;;;;;;;;;;6156597;23;20008;-80
2022/11/24 12:22:20;;;;;;;32.13;17.25;;;;;;;;;;6158355;23;20009;-81
2022/11/24 12:24:48;;;;;;;29.98;17.52;;;;;;;;;;6182529;23;19997;-79
2022/11/24 12:27:20;;;;;;;29.90;14.75;;;;;;;;;;6161604;23;20008;-80
2022/11/24 12:30:09;;;;;;;38.80;17.30;;;;;;;;;;6162069;23;20001;-80
2022/11/24 12:32:43;;;;;;;32.85;16.13;;;;;;;;;;6185061;23;20064;-79
2022/11/24 12:35:28;;;;;;;32.15;17.98;;;;;;;;;;6161917;23;20005;-79
2022/11/24 12:38:09;;;;;;;30.77;17.58;;;;;;;;;;6158559;23;20010;-79
2022/11/24 12:40:36;;;;;;;34.35;19.67;;;;;;;;;;6161982;23;20463;-76
2022/11/24 12:43:17;;;;;;;36.80;20.17;;;;;;;;;;6189660;23;20001;-79
2022/11/24 12:45:43;;;;;;;;;;;;;;;;;;6163067;23;20015;-79
2022/11/24 12:48:36;;;;;;;37.63;18.88;;;;;;;;;;6162487;23;19940;-79
2022/11/24 12:51:13;;;;;;;36.78;20.45;;;;;;;;;;6186893;23;20079;-76
2022/11/24 12:53:43;;;;;;;38.30;20.33;;;;;;;;;;6168989;23;20087;-79
2022/11/24 12:56:25;;;;;;;38.78;21.85;;;;;;;;;;6185007;23;20051;-78
2022/11/24 12:59:14;;;;;;;36.08;20.83;;;;;;;;;;6185513;23;20052;-78
2022/11/24 13:01:51;;;;;;;40.17;23.48;;;;;;;;;;6187044;23;19997;-79
2022/11/24 13:04:32;;;;;;;37.85;21.80;;;;;;;;;;6187102;23;20001;-78
2022/11/24 13:07:01;;;;;;;37.25;21.10;;;;;;;;;;6187361;23;20005;-77
2022/11/24 13:09:29;;;;;;;40.40;21.83;;;;;;;;;;6187298;23;19997;-79
2022/11/24 13:12:14;;;;;;;39.80;22.95;;;;;;;;;;6184502;23;20638;-78
2022/11/24 13:14:57;;;;;;;41.25;22.85;;;;;;;;;;6186626;23;20021;-79
2022/11/24 13:17:32;;;;;;;39.60;22.63;;;;;;;;;;6188042;23;20011;-79
2022/11/24 13:20:36;;;;;;;38.40;20.30;;;;;;;;;;6186795;23;20009;-79
2022/11/24 13:23:05;;;;;;;36.75;22.70;;;;;;;;;;6097811;23;20006;-80
2022/11/24 13:25:33;;;;;;;35.72;22.15;;;;;;;;;;6169098;23;20005;-79
2022/11/24 13:27:59;;;;;;;38.50;22.40;;;;;;;;;;6181568;23;20009;-79
2022/11/24 13:30:41;;;;;;;39.63;22.42;;;;;;;;;;6183759;23;20375;-78
2022/11/24 13:33:13;;;;;;;41.92;21.33;;;;;;;;;;6186472;23;19997;-78
2022/11/24 13:35:40;;;;;;;32.88;20.58;;;;;;;;;;6185931;23;20012;-78
2022/11/24 13:38:24;;;;;;;35.45;19.65;;;;;;;;;;6186469;23;20337;-79
2022/11/24 13:40:51;;;;;;;34.00;18.92;;;;;;;;;;6184726;23;20069;-79
2022/11/24 13:43:17;;;;;;;31.75;18.13;;;;;;;;;;6185963;23;20005;-78
2022/11/24 13:45:48;;;;;;;37.10;20.20;;;;;;;;;;6184935;23;20307;-79
2022/11/24 13:48:14;;;;;;;;;;;;;;;;;;6186181;23;20377;-79
2022/11/24 13:50:49;;;;;;;35.28;20.38;;;;;;;;;;6185900;23;20287;-78
2022/11/24 13:53:18;;;;;;;43.00;22.17;;;;;;;;;;6192090;23;20012;-79
2022/11/24 13:55:56;;;;;;;39.95;23.20;;;;;;;;;;6189058;23;20083;-78
2022/11/24 13:58:38;;;;;;;39.67;24.08;;;;;;;;;;6215259;23;20452;-79
2022/11/24 14:01:21;;;;;;;47.15;25.90;;;;;;;;;;6214936;23;20373;-78
2022/11/24 14:04:02;;;;;;;49.17;26.80;;;;;;;;;;6191323;23;20031;-80
2022/11/24 14:06:33;;;;;;;49.17;26.27;;;;;;;;;;6215830;23;20015;-79
2022/11/24 14:09:01;;;;;;;43.28;23.50;;;;;;;;;;6188197;23;20066;-78
2022/11/24 14:11:27;;;;;;;40.83;25.13;;;;;;;;;;6215255;23;20004;-78
2022/11/24 14:13:57;;;;;;;40.88;23.30;;;;;;;;;;6188575;23;20441;-78
2022/11/24 14:16:26;;;;;;;38.92;22.77;;;;;;;;;;6190657;23;20008;-78
2022/11/24 14:18:52;;;;;;;48.33;27.83;;;;;;;;;;6215656;23;20001;-79
2022/11/24 14:21:21;;;;;;;46.08;25.70;;;;;;;;;;6193629;23;20332;-78
2022/11/24 14:23:55;;;;;;;50.65;27.70;;;;;;;;;;6219314;23;20004;-79
2022/11/24 14:26:23;;;;;;;58.45;28.55;;;;;;;;;;6192491;23;20004;-77
2022/11/24 14:28:49;;;;;;;54.35;29.10;;;;;;;;;;6189284;23;20055;-79
2022/11/24 14:31:20;;;;;;;51.55;26.70;;;;;;;;;;6189087;23;20027;-79
2022/11/24 14:33:46;;;;;;;52.28;27.85;;;;;;;;;;6189116;23;20071;-79
2022/11/24 14:36:16;;;;;;;54.50;29.15;;;;;;;;;;6188744;23;20039;-78
2022/11/24 14:38:43;;;;;;;52.47;29.20;;;;;;;;;;6214857;23;20011;-78
2022/11/24 14:41:25;;;;;;;59.17;32.25;;;;;;;;;;6188453;23;20064;-77
2022/11/24 14:44:03;;;;;;;57.50;30.77;;;;;;;;;;6187884;23;20005;-79
2022/11/24 14:46:32;;;;;;;57.88;30.23;;;;;;;;;;6190115;23;20079;-79
2022/11/24 14:48:58;;;;;;;59.55;29.75;;;;;;;;;;6188550;23;20016;-79
2022/11/24 14:51:26;;;;;;;52.83;28.67;;;;;;;;;;6188948;23;20008;-78
2022/11/24 14:53:53;;;;;;;47.70;26.70;;;;;;;;;;6189122;23;20099;-79
2022/11/24 14:56:24;;;;;;;55.95;29.77;;;;;;;;;;6215954;23;20043;-80
2022/11/24 14:58:56;;;;;;;61.08;31.90;;;;;;;;;;6214630;23;20027;-78
2022/11/24 15:01:25;;;;;;;52.70;28.42;;;;;;;;;;6189452;23;20021;-79
2022/11/24 15:04:11;;;;;;;47.53;27.25;;;;;;;;;;6215269;23;20055;-79
2022/11/24 15:06:39;;;;;;;52.47;28.08;;;;;;;;;;6215712;23;20005;-79
2022/11/24 15:09:05;;;;;;;51.72;25.95;;;;;;;;;;6189222;23;20009;-77
2022/11/24 15:11:35;;;;;;;45.13;25.40;;;;;;;;;;6215683;23;19997;-78
2022/11/24 15:14:03;;;;;;;47.88;25.73;;;;;;;;;;6189752;23;20107;-74
2022/11/24 15:16:30;;;;;;;48.65;27.17;;;;;;;;;;6216906;23;20437;-78
2022/11/24 15:19:00;;;;;;;54.03;29.45;;;;;;;;;;6218587;23;20139;-78
2022/11/24 15:21:33;;;;;;;54.67;29.13;;;;;;;;;;6190838;23;20005;-78
2022/11/24 15:24:26;;;;;;;54.15;30.05;;;;;;;;;;6189135;23;20043;-79
2022/11/24 15:27:02;;;;;;;49.28;28.05;;;;;;;;;;6182043;23;20008;-78
2022/11/24 15:29:28;;;;;;;60.08;31.25;;;;;;;;;;6216717;23;19993;-79
2022/11/24 15:31:54;;;;;;;62.85;31.58;;;;;;;;;;6216258;23;20000;-78